Veribest, Texas
Current Conditions -  °F | °C
As of 6:51 AM on Monday 24 Nov 2014 (Local Time) from KSJT Reporting Station
Clear Clear  
Wind Chill: 31°   Ceiling: Unl
Heat Index: 39°   Visibility: 10mi
Dew Point: 31°   Wind: 13mph
Humidity: 73%   Direction: 290°WNW
Pressure: 30.06"   Gusts: NA
Location:  31.48°N, 100.26°W
Report Text: KSJT 241251Z AUTO 29011KT 10SM CLR 04/M01 A3006 RMK AO2 SLP175 T00391006
Loading
Personal Weather Stations






























Interactive Weather Map New forecast layout! Learn more

10-Day Weather Forecast

Advertisements
Track Severe Weather on mobile